Aérodrome :
LOGIN :

S'inscrire | Disclaimer

   EN    FR    IT 

 










Légende :    VFR   VFR Marginal   IFR   IFR Intensif   IFR Très Intensif
Visi : 
Plafond : 
>= 8 km
>= 3000ft
5 à 8 km
1000 à 3000 ft
1500m à 5 km
500 à 1000 ft
800 à 1500m
200 à 500 ft
< 800m
< 200 ft
Symboles :   Orages  Brouillard  Fortes neiges  Fortes précipitations  Vent > 20 kt
SIGMETs :   Divers  Orages  Givrage  Turbulence  Onde Orograph.  Cendres Volcan.






- Altitude de l'aérodrome : 7 ft
- Code IATA : VCE


LIPZ - Marco Polo Int. Venezia

DERNIER METAR :
  • 240520Z 05005KT 1000 R04R/P1500N BR SCT002 BKN004 16/15 Q1016 NOSIG

METARs EXPIRÉS :
  • 240450Z 04005KT 1000 R04R/P1500N BR OVC002 15/15 Q1016 NOSIG
  • 240420Z 02007KT 0500 R04R/P1500N BCFG BKN005 15/15 Q1016 NOSIG
  • 240350Z 36006KT 0300 R04R/0700U FG OVC003 15/15 Q1017 NOSIG
  • 240320Z 01005KT 0200 R04R/0400N FG VV/// 15/15 Q1017 NOSIG
  • 240250Z 03005KT 360V060 0200 R04R/0300N FG VV/// 15/14 Q1017 NOSIG

TAF TAF LIPZ
Valide du 24 à 06h jusqu'au 25 à 12h UTC


240500Z 2406/2512 VRB05KT 0400 FG BKN003
BECMG 2406/2409 9999 SCT030
TEMPO 2412/2418 SHRA



MET'MAP, la Météo Aéronautique d'un coup d'oeil ! - Copyright ORBIFLY Décembre 2007 - Disclaimer

ORBIFLY MET'MAP TEAM :

Programmation & Développement : Alexandra Zaïnal
Conception & Développement : Baudouin d'Aumeries
Co-Programmation & Développement : Marc-Olivier Méhu
Soutien technique & logistique : Manuel Goepfert

Contact : metmap@orbifly.com




SOURCES & CREDITS :

   NOAA